createdAt,value
2022-10-12T00:01:34.849Z,5.87
2022-10-12T00:04:02.332Z,4.57
2022-10-12T00:06:29.230Z,5.53
2022-10-12T00:08:56.353Z,6.77
2022-10-12T00:11:26.922Z,6.03
2022-10-12T00:13:55.500Z,7.27
2022-10-12T00:16:24.882Z,7.60
2022-10-12T00:24:56.263Z,8.67
2022-10-12T00:31:24.322Z,7.03
2022-10-12T00:34:13.734Z,7.93
2022-10-12T00:40:18.151Z,2.63
2022-10-12T00:42:55.410Z,7.60
2022-10-12T00:45:59.262Z,4.50
2022-10-12T00:53:02.821Z,3.90
2022-10-12T00:55:33.440Z,1.87
2022-10-12T00:58:02.372Z,4.27
2022-10-12T01:00:29.566Z,2.90
2022-10-12T01:02:57.270Z,4.00
2022-10-12T01:05:24.789Z,2.60
2022-10-12T01:07:52.100Z,3.50
2022-10-12T01:14:43.243Z,4.07
2022-10-12T01:17:21.920Z,5.60
2022-10-12T01:20:11.988Z,6.83
2022-10-12T01:22:45.583Z,12.43
2022-10-12T01:25:34.110Z,4.37
2022-10-12T01:28:09.389Z,4.87
2022-10-12T01:35:54.080Z,5.07
2022-10-12T01:38:35.053Z,4.27
2022-10-12T01:41:08.290Z,3.00
2022-10-12T01:43:37.350Z,4.63
2022-10-12T01:46:07.662Z,4.23
2022-10-12T01:48:35.490Z,5.77
2022-10-12T01:51:18.303Z,5.57
2022-10-12T01:58:56.793Z,3.40
2022-10-12T02:01:32.418Z,6.03
2022-10-12T02:04:06.754Z,3.47
2022-10-12T02:06:41.124Z,4.13
2022-10-12T02:09:14.990Z,5.63
2022-10-12T02:11:45.982Z,5.33
2022-10-12T02:14:17.891Z,6.67
2022-10-12T02:21:55.064Z,4.80
2022-10-12T02:24:23.830Z,4.23
2022-10-12T02:26:54.600Z,3.93
2022-10-12T02:29:28.803Z,4.40
2022-10-12T02:32:01.155Z,7.23
2022-10-12T02:34:33.729Z,4.23
2022-10-12T02:37:07.610Z,1.43
2022-10-12T02:45:28.182Z,3.13
2022-10-12T02:47:58.302Z,4.07
2022-10-12T02:50:27.670Z,2.23
2022-10-12T02:52:58.974Z,6.53
2022-10-12T02:55:26.240Z,3.83
2022-10-12T02:57:53.940Z,7.10
2022-10-12T03:00:21.150Z,2.87
2022-10-12T03:19:04.080Z,6.37
2022-10-12T03:21:31.373Z,5.33
2022-10-12T03:23:58.930Z,4.23
2022-10-12T03:26:26.183Z,5.23
2022-10-12T03:28:54.103Z,5.50
2022-10-12T03:31:22.101Z,5.33
2022-10-12T03:33:50.112Z,4.10
2022-10-12T03:38:58.120Z,1.83
2022-10-12T03:41:25.453Z,4.73
2022-10-12T03:43:52.992Z,3.13
2022-10-12T03:46:20.559Z,4.73
2022-10-12T03:48:47.742Z,2.83
2022-10-12T03:51:15.462Z,3.80
2022-10-12T03:53:45.587Z,6.00
2022-10-12T03:56:14.630Z,6.27
2022-10-12T04:03:48.462Z,5.77
2022-10-12T04:06:15.710Z,9.43
2022-10-12T04:08:45.937Z,8.50
2022-10-12T04:11:16.283Z,4.87
2022-10-12T04:13:43.382Z,6.03
2022-10-12T04:16:10.970Z,6.33
2022-10-12T04:18:38.141Z,7.97
2022-10-12T04:26:03.831Z,4.17
2022-10-12T04:28:31.100Z,7.63
2022-10-12T04:30:58.303Z,10.47
2022-10-12T04:33:25.582Z,7.07
2022-10-12T04:35:52.870Z,6.70
2022-10-12T04:38:20.020Z,5.13
2022-10-12T04:40:48.411Z,17.10
2022-10-12T04:48:02.211Z,9.23
2022-10-12T04:50:30.252Z,6.73
2022-10-12T04:52:58.471Z,10.00
2022-10-12T04:55:26.152Z,6.97
2022-10-12T04:57:53.642Z,6.33
2022-10-12T05:00:21.034Z,16.20
2022-10-12T05:02:48.794Z,13.70
2022-10-12T05:10:15.134Z,7.90
2022-10-12T05:12:43.341Z,6.47
2022-10-12T05:15:11.293Z,8.57
2022-10-12T05:17:39.207Z,5.50
2022-10-12T05:20:08.383Z,12.70
2022-10-12T05:22:35.560Z,9.40
2022-10-12T05:25:03.203Z,9.07
2022-10-12T05:32:34.661Z,13.17
2022-10-12T05:35:02.532Z,5.57
2022-10-12T05:37:29.583Z,8.17
2022-10-12T05:39:56.873Z,6.40
2022-10-12T05:42:23.897Z,13.77
2022-10-12T05:44:51.030Z,7.23
2022-10-12T05:47:18.133Z,6.83
2022-10-12T05:54:45.760Z,8.17
2022-10-12T05:57:14.812Z,14.53
2022-10-12T05:59:42.225Z,3.77
2022-10-12T06:02:14.469Z,7.37
2022-10-12T06:04:41.670Z,7.37
2022-10-12T06:07:09.080Z,6.97
2022-10-12T06:09:38.500Z,4.50
2022-10-12T06:17:12.573Z,10.90
2022-10-12T06:19:39.870Z,6.33
2022-10-12T06:22:07.740Z,3.93
2022-10-12T06:24:34.942Z,14.23
2022-10-12T06:27:02.220Z,6.17
2022-10-12T06:29:29.300Z,10.47
2022-10-12T06:31:56.490Z,11.20
2022-10-12T06:39:25.313Z,8.77
2022-10-12T06:41:53.884Z,12.80
2022-10-12T06:44:21.932Z,4.10
2022-10-12T06:46:49.640Z,7.07
2022-10-12T06:49:19.840Z,11.47
2022-10-12T06:51:47.110Z,4.67
2022-10-12T06:54:14.524Z,9.97
2022-10-12T06:56:43.928Z,11.33
2022-10-12T07:04:16.209Z,4.33
2022-10-12T07:06:44.291Z,8.60
2022-10-12T07:09:16.933Z,6.73
2022-10-12T07:11:44.321Z,5.03
2022-10-12T07:14:11.363Z,24.80
2022-10-12T07:16:38.615Z,5.77
2022-10-12T07:19:06.102Z,10.13
2022-10-12T07:26:40.472Z,9.23
2022-10-12T07:29:08.213Z,6.67
2022-10-12T07:31:35.452Z,7.77
2022-10-12T07:34:03.463Z,6.13
2022-10-12T07:36:57.616Z,4.30
2022-10-12T07:39:18.939Z,8.50
2022-10-12T07:41:47.240Z,6.97
2022-10-12T07:51:40.331Z,8.77
2022-10-12T07:54:07.693Z,13.07
2022-10-12T07:56:58.621Z,8.97
2022-10-12T07:59:26.056Z,9.47
2022-10-12T08:01:53.354Z,6.37
2022-10-12T08:04:21.502Z,4.10
2022-10-12T08:06:49.930Z,9.70
2022-10-12T08:15:18.942Z,8.93
2022-10-12T08:17:49.091Z,4.70
2022-10-12T08:20:16.623Z,9.77
2022-10-12T08:22:46.320Z,4.90
2022-10-12T08:25:13.480Z,4.27
2022-10-12T08:27:41.619Z,6.80
2022-10-12T08:30:10.062Z,4.33
2022-10-12T08:32:58.823Z,9.90
2022-10-12T08:40:47.290Z,3.37
2022-10-12T08:43:38.489Z,5.50
2022-10-12T08:46:29.743Z,7.90
2022-10-12T08:49:01.560Z,5.60
2022-10-12T08:52:09.273Z,10.17
2022-10-12T08:54:41.673Z,12.07
2022-10-12T08:57:15.442Z,4.70
2022-10-12T08:59:43.264Z,6.37
2022-10-12T09:02:31.831Z,12.37
2022-10-12T09:10:07.009Z,5.17
2022-10-12T09:12:43.983Z,8.37
2022-10-12T09:15:15.934Z,10.37
2022-10-12T09:17:47.752Z,5.67
2022-10-12T09:20:20.954Z,6.30
2022-10-12T09:22:51.102Z,5.67
2022-10-12T09:25:28.191Z,6.03
2022-10-12T09:28:01.780Z,7.53
2022-10-12T09:38:55.782Z,6.40
2022-10-12T09:41:30.842Z,12.60
2022-10-12T09:44:01.104Z,5.30
2022-10-12T09:46:35.571Z,8.03
2022-10-12T09:49:02.990Z,6.00
2022-10-12T09:51:32.155Z,5.80
2022-10-12T09:54:03.047Z,6.90
2022-10-12T09:59:47.770Z,11.67
2022-10-12T10:02:17.402Z,17.37
2022-10-12T10:04:51.542Z,6.70
2022-10-12T10:07:27.415Z,9.40
2022-10-12T10:10:17.332Z,12.63
2022-10-12T10:13:00.704Z,5.97
2022-10-12T10:15:30.810Z,6.70
2022-10-12T10:20:45.054Z,12.23
2022-10-12T10:23:37.391Z,10.87
2022-10-12T10:26:07.049Z,9.80
2022-10-12T10:28:37.521Z,13.37
2022-10-12T10:31:10.012Z,9.87
2022-10-12T10:33:45.404Z,13.93
2022-10-12T10:36:20.752Z,8.40
2022-10-12T10:38:57.753Z,9.03
2022-10-12T10:49:17.121Z,8.70
2022-10-12T10:51:55.924Z,6.77
2022-10-12T10:54:28.930Z,13.07
2022-10-12T10:57:05.091Z,7.43
2022-10-12T10:59:47.630Z,7.47
2022-10-12T11:02:35.610Z,8.57
2022-10-12T11:05:11.972Z,11.10
2022-10-12T11:10:59.491Z,9.87
2022-10-12T11:13:57.992Z,11.90
2022-10-12T11:16:34.829Z,10.70
2022-10-12T11:19:13.210Z,10.23
2022-10-12T11:24:42.812Z,11.53
2022-10-12T11:27:19.721Z,9.10
2022-10-12T11:33:37.950Z,5.73
2022-10-12T11:36:08.533Z,7.00
2022-10-12T11:38:43.123Z,11.37
2022-10-12T11:44:09.958Z,6.07
2022-10-12T11:46:43.433Z,9.40
2022-10-12T11:49:17.812Z,11.80
2022-10-12T11:51:48.394Z,7.87
2022-10-12T11:57:15.551Z,10.57
2022-10-12T12:00:04.833Z,12.27
2022-10-12T12:02:42.071Z,9.97
2022-10-12T12:05:17.523Z,9.23
2022-10-12T12:07:47.738Z,9.73
2022-10-12T12:10:52.651Z,9.90
2022-10-12T12:13:56.341Z,9.33
2022-10-12T12:16:35.513Z,7.23
2022-10-12T12:20:02.373Z,10.40
2022-10-12T12:22:47.413Z,8.57
2022-10-12T12:32:03.670Z,7.73
2022-10-12T12:34:34.491Z,9.47
2022-10-12T12:37:12.121Z,9.97
2022-10-12T12:40:42.630Z,6.87
2022-10-12T12:51:05.963Z,8.10
2022-10-12T13:17:38.961Z,7.63
2022-10-12T13:23:17.453Z,7.13
2022-10-12T13:25:48.033Z,7.90
2022-10-12T13:28:22.010Z,5.57
2022-10-12T13:30:58.231Z,9.33
2022-10-12T13:33:32.623Z,10.63
2022-10-12T13:36:05.755Z,8.33
2022-10-12T13:38:35.980Z,8.30
2022-10-12T13:57:20.498Z,10.87
2022-10-12T13:59:53.480Z,11.37
2022-10-12T14:02:25.322Z,10.20
2022-10-12T14:04:55.439Z,11.87
2022-10-12T14:07:27.540Z,12.20
2022-10-12T14:10:15.353Z,11.10
2022-10-12T14:12:47.180Z,11.50
2022-10-12T14:15:31.264Z,6.37
2022-10-12T14:23:19.363Z,9.17
2022-10-12T14:25:54.820Z,9.63
2022-10-12T14:28:28.519Z,11.30
2022-10-12T14:30:59.054Z,9.70
2022-10-12T14:33:28.691Z,7.93
2022-10-12T14:36:19.502Z,11.13
2022-10-12T14:41:50.572Z,9.50
2022-10-12T14:44:23.112Z,10.53
2022-10-12T14:46:56.170Z,16.00
2022-10-12T14:49:36.913Z,10.70
2022-10-12T14:52:16.668Z,16.43
2022-10-12T14:54:52.634Z,11.83
2022-10-12T14:57:28.280Z,16.10
2022-10-12T15:02:51.703Z,9.00
2022-10-12T15:05:24.035Z,14.70
2022-10-12T15:07:55.972Z,14.60
2022-10-12T15:10:31.301Z,12.43
2022-10-12T15:13:00.114Z,12.10
2022-10-12T15:15:38.127Z,9.97
2022-10-12T15:18:07.231Z,13.17
2022-10-12T15:26:55.415Z,10.50
2022-10-12T15:29:43.581Z,10.30
2022-10-12T15:32:17.323Z,9.33
2022-10-12T15:34:54.004Z,6.73
2022-10-12T15:37:37.578Z,7.70
2022-10-12T15:40:14.935Z,7.50
2022-10-12T15:42:47.013Z,10.67
2022-10-12T15:49:53.570Z,9.20
2022-10-12T15:52:23.445Z,10.23
2022-10-12T15:54:57.043Z,12.33
2022-10-12T15:57:30.914Z,11.77
2022-10-12T16:00:00.262Z,11.37
2022-10-12T16:02:29.110Z,12.40
2022-10-12T16:05:01.272Z,14.57
2022-10-12T16:12:55.450Z,11.13
2022-10-12T16:15:29.761Z,13.57
2022-10-12T16:18:00.613Z,16.43
2022-10-12T16:20:31.901Z,14.20
2022-10-12T16:23:08.110Z,12.33
2022-10-12T16:25:41.722Z,15.00
2022-10-12T16:28:13.813Z,12.90
2022-10-12T16:35:50.570Z,12.73
2022-10-12T16:38:22.802Z,23.17
2022-10-12T16:40:51.868Z,14.57
2022-10-12T16:43:20.812Z,14.40
2022-10-12T16:45:59.169Z,16.33
2022-10-12T16:48:28.521Z,24.57
2022-10-12T16:50:58.423Z,21.83
2022-10-12T16:58:17.763Z,29.57
2022-10-12T17:00:50.168Z,18.73
2022-10-12T17:03:19.914Z,15.37
2022-10-12T17:05:48.815Z,21.07
2022-10-12T17:08:23.113Z,13.13
2022-10-12T17:10:55.292Z,17.83
2022-10-12T17:13:27.081Z,16.90
2022-10-12T17:18:33.671Z,20.07
2022-10-12T17:21:01.809Z,21.43
2022-10-12T17:23:29.622Z,15.37
2022-10-12T17:26:00.097Z,23.27
2022-10-12T17:28:28.185Z,18.40
2022-10-12T17:30:58.122Z,18.60
2022-10-12T17:33:27.923Z,20.57
2022-10-12T17:41:01.150Z,17.60
2022-10-12T17:43:29.540Z,16.53
2022-10-12T17:45:57.062Z,16.17
2022-10-12T17:48:24.343Z,15.97
2022-10-12T17:50:52.132Z,22.90
2022-10-12T17:53:19.122Z,18.57
2022-10-12T17:55:49.113Z,14.17
2022-10-12T18:03:25.710Z,17.97
2022-10-12T18:05:56.182Z,20.23
2022-10-12T18:08:23.927Z,18.73
2022-10-12T18:10:51.713Z,15.03
2022-10-12T18:13:18.915Z,24.33
2022-10-12T18:15:45.854Z,24.77
2022-10-12T18:18:15.325Z,17.53
2022-10-12T18:23:21.673Z,15.60
2022-10-12T18:25:50.784Z,21.77
2022-10-12T18:28:18.895Z,16.10
2022-10-12T18:30:48.373Z,15.67
2022-10-12T18:33:19.582Z,20.83
2022-10-12T18:35:48.455Z,17.27
2022-10-12T18:38:29.324Z,21.17
2022-10-12T18:46:00.582Z,17.43
2022-10-12T18:48:32.082Z,21.30
2022-10-12T18:51:05.026Z,28.57
2022-10-12T18:53:50.735Z,25.97
2022-10-12T18:56:19.744Z,21.50
2022-10-12T18:58:46.944Z,19.10
2022-10-12T19:01:20.844Z,17.50
2022-10-12T19:08:34.476Z,23.73
2022-10-12T19:11:15.374Z,21.37
2022-10-12T19:13:45.357Z,20.33
2022-10-12T19:16:19.095Z,20.67
2022-10-12T19:18:47.916Z,21.50
2022-10-12T19:21:20.745Z,21.00
2022-10-12T19:24:45.615Z,14.90
2022-10-12T19:27:35.006Z,14.67
2022-10-12T19:58:35.114Z,12.20
2022-10-12T20:04:08.873Z,16.33
2022-10-12T20:06:39.222Z,16.07
2022-10-12T20:09:11.438Z,12.23
2022-10-12T20:12:57.312Z,13.70
2022-10-12T20:15:33.675Z,18.17
2022-10-12T20:18:29.629Z,20.03
2022-10-12T20:21:05.835Z,11.17
2022-10-12T20:23:49.632Z,13.33
2022-10-12T20:29:19.763Z,11.03
2022-10-12T20:44:48.035Z,17.57
2022-10-12T20:47:16.433Z,10.57
2022-10-12T20:49:46.135Z,15.50
2022-10-12T20:52:14.204Z,22.37
2022-10-12T20:54:42.463Z,13.40
2022-10-12T20:57:10.943Z,18.50
2022-10-12T20:59:40.180Z,17.23
2022-10-12T21:10:11.513Z,21.37
2022-10-12T21:12:38.693Z,15.63
2022-10-12T21:15:10.144Z,12.67
2022-10-12T21:17:46.894Z,17.40
2022-10-12T21:20:25.362Z,14.83
2022-10-12T21:22:52.876Z,13.03
2022-10-12T21:25:23.095Z,18.90
2022-10-12T21:28:05.565Z,13.43
2022-10-12T21:30:32.525Z,32.63
2022-10-12T21:36:12.475Z,24.03
2022-10-12T21:38:40.815Z,19.00
2022-10-12T21:41:09.813Z,18.93
2022-10-12T21:43:39.787Z,20.10
2022-10-12T21:46:09.126Z,17.03
2022-10-12T21:48:37.546Z,21.67
2022-10-12T21:51:05.705Z,28.37
2022-10-12T21:53:36.622Z,23.93
2022-10-12T22:01:19.495Z,26.20
2022-10-12T22:03:47.526Z,21.00
2022-10-12T22:06:16.487Z,24.47
2022-10-12T22:08:44.155Z,22.90
2022-10-12T22:11:13.234Z,27.43
2022-10-12T22:13:40.692Z,22.13
2022-10-12T22:16:10.798Z,27.83
2022-10-12T22:23:52.835Z,23.53
2022-10-12T22:26:21.864Z,20.97
2022-10-12T22:28:49.429Z,19.97
2022-10-12T22:31:18.914Z,28.40
2022-10-12T22:33:46.892Z,17.37
2022-10-12T22:36:16.241Z,25.10
2022-10-12T22:38:45.912Z,29.63
2022-10-12T22:44:00.615Z,23.93
2022-10-12T22:46:27.871Z,28.10
2022-10-12T22:48:55.356Z,27.20
2022-10-12T22:51:28.415Z,26.73
2022-10-12T22:53:55.582Z,30.47
2022-10-12T22:56:22.983Z,35.20
2022-10-12T22:58:54.507Z,31.87
2022-10-12T23:04:01.754Z,27.33
2022-10-12T23:06:28.762Z,32.90
2022-10-12T23:08:55.942Z,28.40
2022-10-12T23:11:25.635Z,34.70
2022-10-12T23:13:55.444Z,32.23
2022-10-12T23:16:24.527Z,37.43
2022-10-12T23:18:59.065Z,36.17
2022-10-12T23:27:18.522Z,42.27
2022-10-12T23:29:47.522Z,37.23
2022-10-12T23:32:14.935Z,32.63
2022-10-12T23:34:43.225Z,34.63
2022-10-12T23:37:10.375Z,28.17
2022-10-12T23:39:38.145Z,28.07
2022-10-12T23:42:05.610Z,35.70
2022-10-12T23:50:10.994Z,33.30
2022-10-12T23:52:39.025Z,28.27
2022-10-12T23:55:08.744Z,35.40
2022-10-12T23:57:46.651Z,30.73
